KDVOKHAF

Guest
Details From KDVO - GNOSS FLD
To KHAF - HALF MOON BAY
Flight Number -
Tags generated
Created
Modified
Stats Distance 38 nm / 70 km
Max Altitude 4,400 ft / 1,341 m
Waypoints 3
Social Downloads 3
Likes 0
Share VATSIM

Download

Looking for another format? Having issues loading an existing format? Contact us
Advertisement - Login to hide

Notes

Basic altitude profile: - Ascent Rate: 2500ft/min - Ascent Speed: 250kts - Cruise Altitude: 35000ft - Cruise Speed: 420kts - Descent Rate: 1500ft/min - Descent Speed: 250kts

Route

KDVO SAU KHAF

ID Type Via Altitude Latitude Longitude Leg Dist Tot Dist Heading (true) Name
O KDVO APT - 0 ft / 0 m 38.14360˚ -122.55612˚ - 0 nm - GNOSS FLD
SAU VOR - 4,400 ft / 1,341 m 37.85533˚ -122.52275˚ 17 nm 17 nm 175° / 175° SAUSALITO VORTAC
O KHAF APT - 0 ft / 0 m 37.51343˚ -122.50116˚ 20 nm 37 nm 177° / 177° HALF MOON BAY

Altitude Profile

Advertisement - Login to hide

KDVO

Details ICAO KDVO
Name GNOSS FLD
Region United States
Timezone America/Los_Angeles (UTC-8.0)
Stats Elevation 2 ft / 1 m (AMSL)
Location 38.143602° -122.556123°
Runways 1
Magnetic Variation 13.605° E

METAR

KDVO 160735Z AUTO 05003KT 1SM BR OVC002 05/05 A3003 RMK AO2

Decode

TAF

Not found

Departure Runways

ID Width Length Bearing (true) Bearing (mag) Surface Threshold Offset Overrun Length
13 75 ft / 23 m 3,304 ft / 1,007 m 148.57° 134.96° Asphalt 0 ft / 0 m 98 ft / 30 m
31 75 ft / 23 m 3,304 ft / 1,007 m 328.57° 314.96° Asphalt 0 ft / 0 m 125 ft / 38 m

KHAF

Details ICAO KHAF
Name HALF MOON BAY
Region United States
Timezone America/Los_Angeles (UTC-8.0)
Stats Elevation 66 ft / 20 m (AMSL)
Location 37.513435° -122.501163°
Runways 1
Magnetic Variation 13.459° E

METAR

KHAF 160735Z AUTO 33014G18KT 5SM BR CLR 12/10 A3001 RMK AO2

Decode

TAF

Not found

Destination Runways

ID Width Length Bearing (true) Bearing (mag) Surface Threshold Offset Overrun Length
12 151 ft / 46 m 5,005 ft / 1,525 m 137.06° 123.60° Asphalt 764 ft / 233 m 0 ft / 0 m
30 151 ft / 46 m 5,005 ft / 1,525 m 317.06° 303.60° Asphalt 764 ft / 233 m 0 ft / 0 m